Time;durP1;ratioP1;P1;durP2;ratioP2;P2;SDS_P1;SDS_P2;PMS_P1;PMS_P2;Temp;Humidity;BMP_temperature;BMP_pressure;BME280_temperature;BME280_humidity;BME280_pressure;Samples;Min_cycle;Max_cycle;Signal;HPM_P1;HPM_P2
2021/08/01 00:00:53;;;;;;;2.20;1.47;;;;;;;16.86;53.51;100249.23;1756104;81;21264;-83
2021/08/01 00:03:22;;;;;;;5.70;1.77;;;;;;;16.86;53.57;100252.35;1758915;81;21533;-83
2021/08/01 00:05:48;;;;;;;3.55;2.00;;;;;;;16.85;53.67;100245.25;1756313;81;21050;-83
2021/08/01 00:08:15;;;;;;;2.60;1.57;;;;;;;16.85;53.63;100247.91;1755635;81;21484;-83
2021/08/01 00:10:42;;;;;;;2.85;1.42;;;;;;;16.83;53.72;100243.06;1755953;81;21053;-83
2021/08/01 00:13:09;;;;;;;6.03;1.60;;;;;;;16.80;53.78;100243.05;1756272;81;21748;-83
2021/08/01 00:15:35;;;;;;;4.33;1.50;;;;;;;16.80;53.89;100245.70;1752632;80;21049;-83
2021/08/01 00:18:02;;;;;;;2.37;1.30;;;;;;;16.79;53.97;100241.30;1755967;81;21496;-83
2021/08/01 00:20:29;;;;;;;3.40;1.45;;;;;;;16.78;54.02;100241.75;1756327;81;21017;-83
2021/08/01 00:22:56;;;;;;;2.02;1.40;;;;;;;16.77;54.03;100240.44;1756324;81;21040;-83
2021/08/01 00:25:24;;;;;;;2.33;1.57;;;;;;;16.74;54.13;100238.66;1756251;81;21746;-83
2021/08/01 00:27:52;;;;;;;2.17;1.50;;;;;;;16.72;54.21;100229.82;1756035;81;21109;-84
2021/08/01 00:30:19;;;;;;;4.17;1.32;;;;;;;16.69;54.28;100233.40;1756323;81;21581;-83
2021/08/01 00:32:45;;;;;;;3.52;1.67;;;;;;;16.66;54.40;100232.08;1756608;80;21045;-84
2021/08/01 00:35:12;;;;;;;5.53;1.62;;;;;;;16.65;54.45;100228.14;1756312;81;21013;-84
2021/08/01 00:37:39;;;;;;;6.33;1.72;;;;;;;16.61;54.59;100223.30;1756234;81;21588;-84
2021/08/01 00:40:07;;;;;;;4.12;1.72;;;;;;;16.59;54.62;100229.49;1756293;81;21045;-84
2021/08/01 00:42:34;;;;;;;4.30;2.00;;;;;;;16.57;54.76;100232.61;1756396;81;21009;-84
2021/08/01 00:45:01;;;;;;;6.70;1.92;;;;;;;16.53;54.86;100229.09;1756295;81;20998;-84
2021/08/01 00:47:28;;;;;;;3.98;2.10;;;;;;;16.51;54.88;100225.11;1756221;81;21034;-84
2021/08/01 00:49:55;;;;;;;3.95;1.72;;;;;;;16.48;54.87;100232.26;1755638;81;21994;-84
2021/08/01 00:52:23;;;;;;;4.35;1.90;;;;;;;16.44;54.98;100232.72;1755995;81;21066;-84
2021/08/01 00:54:49;;;;;;;3.05;1.72;;;;;;;16.40;55.03;100234.06;1756256;81;21021;-84
2021/08/01 00:57:16;;;;;;;2.52;1.52;;;;;;;16.36;55.12;100231.00;1756223;81;21528;-84
2021/08/01 00:59:42;;;;;;;8.33;1.92;;;;;;;16.32;55.18;100228.36;1756314;81;21013;-84
2021/08/01 01:02:18;;;;;;;4.75;1.60;;;;;;;16.32;55.24;100231.47;1756276;81;21748;-84
2021/08/01 01:04:56;;;;;;;2.92;1.80;;;;;;;16.31;55.25;100235.00;1755828;81;21017;-84
2021/08/01 01:07:46;;;;;;;6.08;1.77;;;;;;;16.28;55.32;100237.24;1753172;81;21017;-84
2021/08/01 01:10:20;;;;;;;7.42;1.75;;;;;;;16.26;55.45;100240.81;1753501;81;21495;-83
2021/08/01 01:12:58;;;;;;;7.62;1.80;;;;;;;16.25;55.54;100240.36;1756008;81;20997;-83
2021/08/01 01:15:26;;;;;;;5.45;1.75;;;;;;;16.24;55.55;100246.59;1749027;81;21968;-83
2021/08/01 01:17:54;;;;;;;3.33;1.65;;;;;;;16.24;55.64;100243.93;1756031;81;21072;-84
2021/08/01 01:20:50;;;;;;;8.10;1.30;;;;;;;16.22;55.73;100238.62;1756192;81;21018;-84
2021/08/01 01:23:37;;;;;;;4.37;2.33;;;;;;;16.21;55.89;100235.97;1750492;81;21030;-84
2021/08/01 01:26:29;;;;;;;2.83;1.62;;;;;;;16.21;56.00;100228.00;1753086;81;21049;-84
2021/08/01 01:29:15;;;;;;;3.02;1.50;;;;;;;16.21;56.14;100224.02;1756288;81;21875;-83
2021/08/01 01:31:59;;;;;;;2.60;1.55;;;;;;;16.17;56.23;100228.47;1747232;81;21045;-84
2021/08/01 01:34:41;;;;;;;3.72;1.72;;;;;;;16.17;56.44;100247.51;1746480;81;21498;-84
2021/08/01 01:37:09;;;;;;;2.80;1.62;;;;;;;16.16;56.64;100242.65;1755166;81;21428;-84
2021/08/01 01:39:40;;;;;;;1.98;1.60;;;;;;;16.17;56.75;100242.20;1755995;81;21002;-83
2021/08/01 01:42:09;;;;;;;4.72;1.80;;;;;;;16.17;56.91;100235.56;1756186;81;21771;-83
2021/08/01 01:44:37;;;;;;;2.98;1.57;;;;;;;16.16;57.02;100227.14;1756312;81;21009;-83
2021/08/01 01:47:04;;;;;;;2.55;1.22;;;;;;;16.16;57.20;100230.70;1756172;81;21057;-83
2021/08/01 01:49:30;;;;;;;3.37;1.82;;;;;;;16.18;57.32;100246.59;1756196;81;21058;-84
2021/08/01 01:51:57;;;;;;;5.20;1.62;;;;;;;16.19;57.55;100257.22;1756254;81;21113;-84
2021/08/01 01:54:24;;;;;;;2.92;1.32;;;;;;;16.22;57.65;100262.97;1756179;81;22575;-84
2021/08/01 01:56:51;;;;;;;2.98;1.60;;;;;;;16.23;57.77;100266.05;1723056;81;38828;-83
2021/08/01 01:59:18;;;;;;;4.80;1.57;;;;;;;16.25;57.80;100277.09;1754795;81;21519;-83
2021/08/01 02:01:45;;;;;;;3.40;1.70;;;;;;;16.27;57.95;100275.33;1755993;81;21438;-84
2021/08/01 02:04:12;;;;;;;2.60;1.40;;;;;;;16.28;58.02;100265.59;1756231;81;21696;-83
2021/08/01 02:06:39;;;;;;;3.08;1.57;;;;;;;16.30;58.00;100266.45;1756224;81;22594;-84
2021/08/01 02:09:11;;;;;;;5.28;2.20;;;;;;;16.28;58.13;100275.75;1756165;81;21553;-83
2021/08/01 02:12:01;;;;;;;2.15;1.40;;;;;;;16.30;58.26;100271.31;1755112;81;21120;-83
2021/08/01 02:14:31;;;;;;;3.30;1.50;;;;;;;16.31;58.34;100277.50;1756195;81;21076;-83
2021/08/01 02:17:05;;;;;;;4.67;1.30;;;;;;;16.31;58.47;100281.48;1756172;81;21001;-83
2021/08/01 02:19:34;;;;;;;3.47;2.30;;;;;;;16.31;58.55;100275.75;1756156;81;22344;-83
2021/08/01 02:22:03;;;;;;;2.02;1.72;;;;;;;16.32;58.58;100273.51;1756041;81;21065;-83
2021/08/01 02:24:30;;;;;;;1.92;1.47;;;;;;;16.31;58.57;100277.50;1756963;81;21041;-83
2021/08/01 02:26:57;;;;;;;3.98;1.65;;;;;;;16.30;58.71;100269.98;1756042;81;21108;-83
2021/08/01 02:29:24;;;;;;;4.17;1.52;;;;;;;16.30;58.88;100278.41;1747552;81;20997;-83
2021/08/01 02:31:50;;;;;;;2.95;1.55;;;;;;;16.28;58.93;100279.73;1756336;81;21712;-83
2021/08/01 02:34:17;;;;;;;2.65;1.50;;;;;;;16.27;58.98;100285.05;1756219;81;21499;-83
2021/08/01 02:36:44;;;;;;;6.92;1.95;;;;;;;16.26;59.12;100293.92;1756497;81;21009;-83
2021/08/01 02:39:10;;;;;;;2.10;1.60;;;;;;;16.23;59.18;100292.61;1722834;81;21029;-83
2021/08/01 02:41:38;;;;;;;9.38;2.33;;;;;;;16.21;59.34;100287.75;1756519;81;21017;-83
2021/08/01 02:44:21;;;;;;;7.35;1.75;;;;;;;16.18;59.40;100290.41;1756488;81;21753;-83
2021/08/01 02:46:48;;;;;;;3.12;1.60;;;;;;;16.17;59.48;100283.35;1746559;81;21637;-83
2021/08/01 02:49:21;;;;;;;1.65;1.55;;;;;;;16.15;59.56;100282.48;1756413;81;21001;-83
2021/08/01 02:51:52;;;;;;;7.97;1.80;;;;;;;16.12;59.62;100278.95;1755165;81;21028;-83
2021/08/01 02:54:21;;;;;;;4.97;1.60;;;;;;;16.11;59.78;100278.50;1756356;81;21538;-83
2021/08/01 02:56:48;;;;;;;2.87;1.90;;;;;;;16.11;59.87;100279.83;1756151;81;21766;-83
2021/08/01 02:59:15;;;;;;;6.30;2.00;;;;;;;16.11;59.91;100289.13;1756315;81;21562;-83
2021/08/01 03:01:42;;;;;;;6.12;1.60;;;;;;;16.12;60.07;100286.02;1756331;81;21116;-83
2021/08/01 03:04:08;;;;;;;11.00;1.90;;;;;;;16.10;60.07;100284.72;1756305;81;21547;-83
2021/08/01 03:06:35;;;;;;;3.17;1.75;;;;;;;16.09;60.20;100289.58;1722717;81;21044;-84
2021/08/01 03:09:02;;;;;;;4.37;2.08;;;;;;;16.07;60.28;100283.40;1756549;81;21746;-83
2021/08/01 03:11:34;;;;;;;4.37;1.92;;;;;;;16.08;60.37;100281.16;1756207;81;21026;-83
2021/08/01 03:14:03;;;;;;;4.80;1.80;;;;;;;16.09;60.48;100284.72;1756356;81;21084;-84
2021/08/01 03:16:30;;;;;;;5.08;1.90;;;;;;;16.11;60.59;100282.48;1756336;81;21492;-83
2021/08/01 03:18:57;;;;;;;3.87;1.60;;;;;;;16.16;60.68;100286.88;1756291;81;21058;-84
2021/08/01 03:21:23;;;;;;;3.33;1.85;;;;;;;16.21;60.81;100290.41;1756410;81;21763;-84
2021/08/01 03:23:51;;;;;;;2.37;1.87;;;;;;;16.27;60.82;100286.38;1756370;81;21018;-84
2021/08/01 03:26:17;;;;;;;3.80;1.65;;;;;;;16.35;60.82;100293.88;1756310;81;21064;-83
2021/08/01 03:28:44;;;;;;;4.62;1.85;;;;;;;16.43;60.82;100293.83;1756354;81;21083;-84
2021/08/01 03:31:11;;;;;;;5.70;2.15;;;;;;;16.52;60.78;100295.09;1756260;81;21049;-84
2021/08/01 03:33:37;;;;;;;4.67;1.70;;;;;;;16.60;60.72;100299.90;1756248;81;21766;-84
2021/08/01 03:36:05;;;;;;;4.50;2.02;;;;;;;16.70;60.68;100290.98;1756199;81;21053;-84
2021/08/01 03:38:31;;;;;;;1.90;1.45;;;;;;;16.85;60.75;100286.45;1756355;81;21021;-84
2021/08/01 03:40:58;;;;;;;3.92;1.67;;;;;;;17.04;60.70;100288.50;1756241;81;21564;-84
2021/08/01 03:43:25;;;;;;;3.17;1.45;;;;;;;17.38;60.93;100287.75;1756309;81;21089;-84
2021/08/01 03:45:51;;;;;;;4.87;1.62;;;;;;;18.12;60.80;100281.58;1756296;81;21806;-87
2021/08/01 03:48:18;;;;;;;5.03;1.47;;;;;;;18.74;60.32;100283.34;1756386;81;20998;-87
2021/08/01 03:50:45;;;;;;;5.90;1.80;;;;;;;20.11;60.54;100280.83;1756459;81;21086;-86
2021/08/01 03:53:11;;;;;;;5.00;1.47;;;;;;;22.02;59.20;100282.70;1756102;81;21033;-86
2021/08/01 03:55:38;;;;;;;3.83;1.27;;;;;;;23.64;56.56;100279.62;1756452;81;21037;-86
2021/08/01 03:58:05;;;;;;;5.78;1.30;;;;;;;25.04;54.67;100272.83;1756310;81;21793;-85
2021/08/01 04:00:31;;;;;;;1.50;1.00;;;;;;;26.23;52.36;100275.64;1756377;81;21057;-86
2021/08/01 04:02:58;;;;;;;4.10;1.42;;;;;;;27.22;50.95;100268.48;1756225;81;20994;-86
2021/08/01 04:05:25;;;;;;;4.00;1.42;;;;;;;27.89;48.86;100266.78;1756275;81;21048;-87
2021/08/01 04:07:51;;;;;;;2.17;1.45;;;;;;;28.24;47.45;100260.36;1756133;81;21542;-86
2021/08/01 04:10:18;;;;;;;2.75;1.27;;;;;;;28.00;45.51;100266.66;1756235;81;22403;-86
2021/08/01 04:12:45;;;;;;;1.92;1.15;;;;;;;27.48;45.07;100277.06;1756130;81;21036;-86
2021/08/01 04:15:13;;;;;;;1.92;1.17;;;;;;;27.67;45.70;100285.09;1756228;81;21025;-86
2021/08/01 04:17:40;;;;;;;3.25;1.47;;;;;;;28.87;44.96;100287.43;1756286;81;21304;-86
2021/08/01 04:20:09;;;;;;;1.82;1.10;;;;;;;29.99;43.62;100301.45;1756349;81;21033;-87
2021/08/01 04:22:35;;;;;;;1.98;1.27;;;;;;;30.27;42.35;100296.12;1756405;81;22500;-86
2021/08/01 04:25:02;;;;;;;3.17;1.65;;;;;;;31.30;41.85;100290.19;1756249;81;21481;-87
2021/08/01 04:27:29;;;;;;;2.50;1.22;;;;;;;32.32;40.13;100285.27;1756326;81;21025;-87
2021/08/01 04:29:55;;;;;;;2.77;1.52;;;;;;;33.33;39.29;100296.36;1756349;81;21383;-86
2021/08/01 04:32:22;;;;;;;5.05;1.07;;;;;;;34.44;37.97;100293.02;1756342;81;21511;-87
2021/08/01 04:34:49;;;;;;;3.10;1.30;;;;;;;35.56;36.78;100288.16;1756305;81;21158;-86
2021/08/01 04:37:15;;;;;;;2.67;1.42;;;;;;;36.07;35.04;100294.65;1756225;81;21606;-87
2021/08/01 04:39:42;;;;;;;6.22;1.30;;;;;;;36.73;34.30;100293.66;1756540;81;21115;-86
2021/08/01 04:42:08;;;;;;;4.55;1.30;;;;;;;37.51;33.21;100296.94;1756206;81;21002;-87
2021/08/01 04:44:35;;;;;;;1.50;1.12;;;;;;;38.08;32.20;100301.09;1756457;81;21108;-87
2021/08/01 04:47:02;;;;;;;1.98;1.17;;;;;;;38.70;31.35;100295.85;1756234;81;21814;-86
2021/08/01 04:49:29;;;;;;;5.00;1.20;;;;;;;39.34;30.56;100300.78;1756218;81;21522;-87
2021/08/01 04:51:56;;;;;;;4.85;1.37;;;;;;;39.96;29.32;100299.37;1756296;81;21073;-87
2021/08/01 04:54:23;;;;;;;3.65;1.40;;;;;;;40.19;28.53;100286.41;1755982;81;21531;-87
2021/08/01 04:56:50;;;;;;;1.55;1.20;;;;;;;40.48;27.74;100292.05;1756347;81;21064;-86
2021/08/01 04:59:17;;;;;;;3.10;1.20;;;;;;;40.77;27.27;100293.89;1756353;81;21844;-87
2021/08/01 05:01:46;;;;;;;2.37;1.00;;;;;;;41.18;26.48;100290.28;1756344;81;21068;-85
2021/08/01 05:04:13;;;;;;;2.22;1.20;;;;;;;41.25;25.93;100301.55;1755968;81;21010;-86
2021/08/01 05:06:40;;;;;;;2.67;1.22;;;;;;;41.08;25.27;100302.89;1756243;81;21061;-86
2021/08/01 05:09:07;;;;;;;3.10;1.10;;;;;;;41.07;25.12;100303.05;1756296;81;21018;-86
2021/08/01 05:11:34;;;;;;;2.37;1.22;;;;;;;41.31;24.63;100303.09;1756087;81;21754;-84
2021/08/01 05:14:00;;;;;;;2.33;1.40;;;;;;;40.33;24.00;100309.23;1756124;81;21560;-87
2021/08/01 05:16:27;;;;;;;3.98;1.10;;;;;;;38.63;24.14;100312.61;1756193;81;21084;-86
2021/08/01 05:18:54;;;;;;;3.25;1.40;;;;;;;37.24;24.80;100315.04;1756065;81;21026;-87
2021/08/01 05:21:21;;;;;;;2.67;1.25;;;;;;;36.20;25.50;100313.98;1756252;81;21046;-86
2021/08/01 05:23:48;;;;;;;4.20;1.30;;;;;;;35.25;26.03;100322.27;1756253;81;22690;-87
2021/08/01 05:26:16;;;;;;;2.00;1.32;;;;;;;34.36;26.82;100319.61;1756239;81;21064;-86
2021/08/01 05:28:43;;;;;;;1.70;1.30;;;;;;;34.31;27.32;100320.98;1756208;81;21550;-87
2021/08/01 05:31:09;;;;;;;2.85;1.50;;;;;;;34.66;27.41;100320.30;1756193;81;21018;-87
2021/08/01 05:33:36;;;;;;;2.33;1.27;;;;;;;35.59;27.66;100312.53;1756383;81;21469;-86
2021/08/01 05:36:07;;;;;;;6.78;3.02;;;;;;;36.96;27.06;100319.48;1753428;81;21735;-86
2021/08/01 05:38:34;;;;;;;3.90;1.32;;;;;;;37.66;26.14;100320.20;1756376;81;21512;-87
2021/08/01 05:41:01;;;;;;;5.70;1.50;;;;;;;38.39;25.91;100320.91;1756576;81;21026;-86
2021/08/01 05:43:28;;;;;;;4.92;1.55;;;;;;;38.84;25.19;100320.08;1756319;81;21547;-87
2021/08/01 05:45:54;;;;;;;3.27;1.40;;;;;;;37.59;24.58;100323.14;1756341;81;21026;-86
2021/08/01 05:48:21;;;;;;;4.28;1.05;;;;;;;35.51;25.13;100321.90;1756339;81;21983;-86
2021/08/01 05:50:49;;;;;;;4.03;1.40;;;;;;;33.59;26.16;100331.66;1753902;81;21093;-86
2021/08/01 05:53:20;;;;;;;3.83;1.80;;;;;;;31.96;27.26;100326.38;1756494;81;21002;-86
2021/08/01 05:55:45;;;;;;;3.95;1.57;;;;;;;30.72;28.54;100330.30;1757653;80;21036;-87
2021/08/01 05:58:11;;;;;;;4.17;1.50;;;;;;;29.73;29.57;100327.97;1756341;81;21030;-86
2021/08/01 06:00:38;;;;;;;2.40;1.65;;;;;;;28.83;30.57;100324.25;1756326;81;21749;-87
2021/08/01 06:03:05;;;;;;;2.08;1.40;;;;;;;28.09;31.52;100321.13;1756294;81;21014;-87
2021/08/01 06:05:31;;;;;;;3.20;1.85;;;;;;;27.35;32.47;100316.05;1756520;81;21025;-86
2021/08/01 06:07:58;;;;;;;2.47;1.45;;;;;;;26.80;33.30;100322.84;1756370;81;21577;-86
2021/08/01 06:10:25;;;;;;;3.37;1.32;;;;;;;26.36;34.00;100318.14;1756564;81;20986;-87
2021/08/01 06:12:51;;;;;;;4.20;3.12;;;;;;;26.04;34.83;100321.49;1756386;81;21432;-87
2021/08/01 06:15:18;;;;;;;3.42;2.30;;;;;;;25.76;35.50;100318.66;1756270;81;21100;-86
2021/08/01 06:17:45;;;;;;;8.53;1.82;;;;;;;25.58;36.10;100329.33;1722504;81;21022;-87
2021/08/01 06:20:12;;;;;;;6.60;1.62;;;;;;;25.44;36.56;100322.79;1756437;81;21416;-87
2021/08/01 06:22:39;;;;;;;3.42;1.52;;;;;;;25.34;36.87;100326.33;1756515;81;21092;-87
2021/08/01 06:25:07;;;;;;;2.45;1.42;;;;;;;25.23;37.26;100325.47;1756462;81;21919;-86
2021/08/01 06:27:33;;;;;;;2.77;1.37;;;;;;;25.11;37.60;100334.88;1756332;81;21017;-86
2021/08/01 06:30:00;;;;;;;3.42;1.40;;;;;;;24.99;37.91;100329.55;1756343;81;21096;-87
2021/08/01 06:32:27;;;;;;;2.02;1.37;;;;;;;24.90;38.23;100334.45;1746372;81;21341;-86
2021/08/01 06:34:54;;;;;;;2.77;1.20;;;;;;;24.73;38.68;100340.52;1745472;82;21543;-86
2021/08/01 06:37:21;;;;;;;5.05;1.42;;;;;;;24.58;39.00;100344.69;1745786;82;21749;-86
2021/08/01 06:39:47;;;;;;;2.58;1.20;;;;;;;24.43;39.43;100338.93;1745634;82;21006;-87
2021/08/01 06:42:14;;;;;;;3.35;1.27;;;;;;;24.31;39.77;100339.91;1745435;82;21002;-86
2021/08/01 06:44:41;;;;;;;4.05;1.52;;;;;;;24.22;40.10;100339.78;1745265;82;21120;-86
2021/08/01 06:47:07;;;;;;;1.25;1.12;;;;;;;24.15;40.54;100340.94;1745290;81;21046;-86
2021/08/01 06:49:35;;;;;;;1.70;1.10;;;;;;;23.96;40.76;100320.12;1744976;82;21752;-86
2021/08/01 06:52:03;;;;;;;3.60;1.30;;;;;;;24.03;40.99;100336.91;1745337;81;21041;-87
2021/08/01 06:54:29;;;;;;;7.10;1.75;;;;;;;24.00;41.22;100339.70;1745354;82;21548;-86
2021/08/01 06:56:56;;;;;;;3.35;1.32;;;;;;;24.00;41.44;100341.91;1744904;81;21022;-87
2021/08/01 06:59:23;;;;;;;6.67;1.50;;;;;;;24.01;41.73;100338.30;1745069;81;20991;-87
2021/08/01 07:01:50;;;;;;;7.22;1.60;;;;;;;24.09;41.88;100340.70;1745190;81;21902;-86
2021/08/01 07:04:17;;;;;;;19.65;2.27;;;;;;;24.21;41.92;100336.22;1744930;81;21112;-86
2021/08/01 07:06:45;;;;;;;3.50;1.47;;;;;;;24.32;42.01;100331.75;1745309;81;21000;-86
2021/08/01 07:09:12;;;;;;;3.25;1.70;;;;;;;24.35;41.86;100328.95;1745557;82;21030;-86
2021/08/01 07:11:39;;;;;;;2.95;1.62;;;;;;;24.35;41.93;100323.57;1745706;82;21606;-86
2021/08/01 07:14:05;;;;;;;2.50;1.52;;;;;;;24.35;41.93;100323.57;1745893;82;21732;-87
2021/08/01 07:16:32;;;;;;;2.30;1.62;;;;;;;24.40;42.06;100332.34;1745758;82;21689;-86
2021/08/01 07:18:59;;;;;;;3.22;1.37;;;;;;;24.50;42.17;100332.86;1745693;82;21045;-87
2021/08/01 07:21:25;;;;;;;5.05;1.70;;;;;;;24.59;42.19;100342.42;1745818;82;21523;-86
2021/08/01 07:23:52;;;;;;;1.40;1.07;;;;;;;24.53;42.15;100336.82;1736765;82;21025;-86
2021/08/01 07:26:19;;;;;;;6.92;1.87;;;;;;;24.49;42.17;100346.37;1745648;82;21750;-87
2021/08/01 07:28:45;;;;;;;4.83;1.30;;;;;;;24.49;42.17;100346.37;1745760;82;21005;-86
2021/08/01 07:31:12;;;;;;;1.90;1.27;;;;;;;24.42;42.16;100349.78;1745717;82;21018;-86
2021/08/01 07:33:39;;;;;;;3.83;1.25;;;;;;;24.35;42.30;100352.30;1745282;82;21581;-86
2021/08/01 07:36:07;;;;;;;2.58;1.57;;;;;;;24.25;42.19;100345.92;1746733;81;21009;-86
2021/08/01 07:38:33;;;;;;;2.50;1.52;;;;;;;24.24;42.47;100346.84;1745633;82;21862;-86
2021/08/01 07:41:00;;;;;;;3.58;1.35;;;;;;;24.21;42.79;100323.22;1745646;82;21548;-86
2021/08/01 07:43:27;;;;;;;2.67;1.62;;;;;;;24.21;42.79;100323.22;1745599;82;21045;-86
2021/08/01 07:45:54;;;;;;;5.33;1.50;;;;;;;24.35;42.70;100353.16;1745316;82;21014;-86
2021/08/01 07:48:20;;;;;;;5.37;1.37;;;;;;;24.39;42.73;100337.78;1745664;82;21507;-86
2021/08/01 07:50:47;;;;;;;2.17;1.57;;;;;;;24.44;42.59;100344.73;1749398;80;21747;-86
2021/08/01 07:53:14;;;;;;;6.37;3.80;;;;;;;24.42;42.64;100339.89;1754813;81;21009;-86
2021/08/01 07:55:43;;;;;;;1.57;1.45;;;;;;;24.48;42.79;100333.87;1756178;81;21088;-86
2021/08/01 07:58:09;;;;;;;11.45;2.00;;;;;;;24.60;42.75;100338.30;1753372;81;21017;-86
2021/08/01 08:00:36;;;;;;;2.30;1.30;;;;;;;24.60;42.75;100338.30;1756112;81;22189;-86
2021/08/01 08:03:02;;;;;;;2.00;1.35;;;;;;;24.76;42.60;100335.02;1756427;81;21758;-86
2021/08/01 08:05:29;;;;;;;2.87;1.70;;;;;;;24.77;42.53;100328.68;1756274;81;21021;-86
2021/08/01 08:07:56;;;;;;;4.50;2.05;;;;;;;24.97;42.50;100339.52;1756005;81;21021;-86
2021/08/01 08:10:23;;;;;;;1.98;1.30;;;;;;;25.17;42.43;100340.48;1756359;81;21464;-86
2021/08/01 08:12:50;;;;;;;1.62;1.40;;;;;;;25.31;42.37;100348.90;1756317;81;20997;-86
2021/08/01 08:15:17;;;;;;;2.85;1.40;;;;;;;25.35;41.91;100353.20;1756427;81;21746;-86
2021/08/01 08:17:45;;;;;;;7.67;1.42;;;;;;;25.46;41.96;100351.41;1756368;81;21527;-87
2021/08/01 08:20:13;;;;;;;1.62;1.25;;;;;;;25.59;42.06;100343.19;1756452;81;21017;-87
2021/08/01 08:22:39;;;;;;;2.05;1.30;;;;;;;25.85;42.08;100351.09;1756337;81;21017;-87
2021/08/01 08:25:07;;;;;;;4.92;1.50;;;;;;;26.01;41.86;100355.33;1756299;81;21514;-87
2021/08/01 08:27:34;;;;;;;3.83;2.05;;;;;;;26.22;41.72;100358.38;1756347;81;21756;-87
2021/08/01 08:30:00;;;;;;;4.03;1.20;;;;;;;26.36;41.29;100354.58;1756156;81;21268;-87
2021/08/01 08:32:27;;;;;;;4.10;1.10;;;;;;;26.45;41.14;100364.07;1756262;81;21488;-87
2021/08/01 08:34:54;;;;;;;1.95;1.30;;;;;;;26.44;40.88;100354.69;1722537;81;21076;-86
2021/08/01 08:37:21;;;;;;;2.70;1.42;;;;;;;26.55;40.67;100362.67;1756078;81;21609;-85
2021/08/01 08:39:48;;;;;;;3.27;1.45;;;;;;;26.70;40.50;100355.70;1756205;81;21835;-86
2021/08/01 08:42:16;;;;;;;2.40;1.60;;;;;;;26.84;40.18;100355.49;1756170;81;20990;-86
2021/08/01 08:44:42;;;;;;;2.17;1.20;;;;;;;26.91;40.00;100360.52;1756126;81;21108;-86
2021/08/01 08:47:09;;;;;;;2.27;1.15;;;;;;;26.90;39.89;100361.48;1756029;81;21069;-87
2021/08/01 08:49:37;;;;;;;1.07;0.82;;;;;;;26.83;39.85;100364.56;1756303;81;21437;-85
2021/08/01 08:52:06;;;;;;;1.65;1.25;;;;;;;26.66;39.64;100362.20;1756291;81;21812;-87
2021/08/01 08:54:41;;;;;;;1.62;1.07;;;;;;;26.64;39.96;100371.33;1756201;81;21037;-87
2021/08/01 08:57:16;;;;;;;5.55;1.12;;;;;;;26.56;39.82;100372.53;1756311;81;21530;-87
2021/08/01 08:59:42;;;;;;;1.95;0.88;;;;;;;26.52;39.85;100365.98;1756288;81;21239;-87
2021/08/01 09:02:14;;;;;;;5.25;1.15;;;;;;;26.58;39.91;100366.58;1756247;81;21021;-85
2021/08/01 09:04:42;;;;;;;4.33;1.20;;;;;;;26.71;39.62;100373.66;1756198;81;21796;-86
2021/08/01 09:07:09;;;;;;;2.77;1.20;;;;;;;26.79;39.34;100375.12;1756195;81;21109;-86
2021/08/01 09:09:36;;;;;;;1.72;1.10;;;;;;;26.84;39.15;100379.80;1756364;81;21073;-87
2021/08/01 09:12:03;;;;;;;5.35;1.80;;;;;;;26.76;39.10;100384.22;1756316;81;21060;-86
2021/08/01 09:14:30;;;;;;;5.12;1.00;;;;;;;26.79;39.04;100383.22;1756458;81;21068;-87
2021/08/01 09:16:56;;;;;;;2.22;1.25;;;;;;;26.87;38.82;100376.48;1756191;81;21753;-86
2021/08/01 09:19:32;;;;;;;4.15;1.42;;;;;;;26.96;38.92;100381.91;1756313;81;21056;-87
2021/08/01 09:22:22;;;;;;;4.12;1.15;;;;;;;26.95;38.77;100379.70;1756568;81;21041;-86
2021/08/01 09:24:51;;;;;;;2.55;1.95;;;;;;;26.89;38.81;100384.02;1756335;81;21543;-86
2021/08/01 09:27:31;;;;;;;3.50;2.87;;;;;;;26.90;38.79;100380.88;1756389;81;21569;-86
2021/08/01 09:29:58;;;;;;;1.98;0.98;;;;;;;27.06;38.94;100386.38;1756336;81;21412;-87
2021/08/01 09:32:25;;;;;;;2.50;1.20;;;;;;;27.28;38.70;100376.28;1756234;81;21029;-86
2021/08/01 09:34:52;;;;;;;1.42;1.30;;;;;;;27.44;38.60;100361.98;1756429;81;21021;-86
2021/08/01 09:37:35;;;;;;;1.37;1.07;;;;;;;27.54;38.34;100356.52;1756286;81;21005;-86
2021/08/01 09:40:12;;;;;;;1.47;0.93;;;;;;;27.57;38.14;100349.58;1756400;81;21452;-86
2021/08/01 09:42:43;;;;;;;2.45;1.60;;;;;;;27.51;38.05;100343.14;1755788;81;22400;-86
2021/08/01 09:45:18;;;;;;;2.77;1.72;;;;;;;27.48;38.00;100342.84;1756504;81;21005;-87
2021/08/01 09:47:45;;;;;;;4.00;1.25;;;;;;;27.42;37.79;100341.78;1756352;81;21050;-86
2021/08/01 09:50:13;;;;;;;1.87;1.22;;;;;;;27.40;37.82;100334.72;1756342;81;21021;-86
2021/08/01 09:52:42;;;;;;;3.20;1.50;;;;;;;27.34;37.88;100335.42;1756459;81;20990;-86
2021/08/01 09:55:19;;;;;;;2.52;1.15;;;;;;;27.29;37.75;100330.75;1756322;81;22625;-86
2021/08/01 09:57:53;;;;;;;1.98;1.32;;;;;;;27.29;37.79;100333.91;1756390;81;21097;-86
2021/08/01 10:00:21;;;;;;;4.28;1.77;;;;;;;27.21;37.79;100336.98;1756396;81;20998;-87
2021/08/01 10:02:48;;;;;;;2.22;1.32;;;;;;;27.19;37.61;100332.61;1756426;81;21057;-86
2021/08/01 10:05:20;;;;;;;3.83;1.30;;;;;;;27.12;37.76;100334.73;1756277;81;21507;-87
2021/08/01 10:07:49;;;;;;;1.45;1.10;;;;;;;27.14;37.66;100330.12;1756395;81;22589;-87
2021/08/01 10:10:20;;;;;;;3.52;1.22;;;;;;;27.10;37.45;100334.84;1756321;81;21030;-86
2021/08/01 10:12:49;;;;;;;1.40;1.00;;;;;;;27.04;37.45;100335.61;1752990;81;21480;-87
2021/08/01 10:15:16;;;;;;;2.98;1.00;;;;;;;26.98;37.54;100335.45;1756437;81;21442;-87
2021/08/01 10:17:43;;;;;;;4.75;1.72;;;;;;;26.94;37.38;100336.07;1750797;81;21026;-86
2021/08/01 10:20:10;;;;;;;1.27;1.07;;;;;;;26.99;37.42;100336.31;1756146;81;21887;-86
2021/08/01 10:22:39;;;;;;;1.10;0.88;;;;;;;27.00;37.35;100332.19;1756378;81;21006;-86
2021/08/01 10:25:11;;;;;;;2.30;1.05;;;;;;;27.06;37.48;100333.70;1756368;81;21575;-85
2021/08/01 10:27:46;;;;;;;2.22;1.07;;;;;;;27.17;37.35;100333.17;1756290;81;21069;-86
2021/08/01 10:30:17;;;;;;;3.80;1.32;;;;;;;27.25;37.05;100332.30;1756341;81;21061;-86
2021/08/01 10:32:45;;;;;;;3.52;1.40;;;;;;;27.35;37.06;100330.92;1723563;81;22614;-86
2021/08/01 10:35:16;;;;;;;5.40;1.20;;;;;;;27.50;37.12;100328.77;1756200;81;21017;-86
2021/08/01 10:38:04;;;;;;;3.37;1.20;;;;;;;27.69;36.98;100330.50;1756362;81;21025;-86
2021/08/01 10:40:34;;;;;;;1.30;1.20;;;;;;;27.89;36.75;100333.05;1756412;81;21026;-86
2021/08/01 10:43:05;;;;;;;2.22;1.20;;;;;;;28.09;36.66;100322.48;1756093;81;21123;-86
2021/08/01 10:45:31;;;;;;;2.92;1.45;;;;;;;28.22;36.72;100328.09;1755819;81;21149;-86
2021/08/01 10:47:58;;;;;;;2.10;1.27;;;;;;;28.30;36.69;100329.92;1756220;81;21041;-86
2021/08/01 10:50:31;;;;;;;1.55;1.02;;;;;;;28.38;36.58;100329.94;1747547;81;21079;-85
2021/08/01 10:53:23;;;;;;;2.15;1.27;;;;;;;28.45;36.27;100333.56;1755870;81;21491;-86
2021/08/01 10:55:53;;;;;;;1.25;0.93;;;;;;;28.52;36.22;100333.25;1755200;81;21065;-86
2021/08/01 10:58:20;;;;;;;4.00;1.42;;;;;;;28.59;35.87;100336.91;1751455;81;21820;-86
2021/08/01 11:01:04;;;;;;;3.45;1.25;;;;;;;28.74;35.55;100339.22;1741006;81;21069;-86
2021/08/01 11:03:33;;;;;;;2.22;1.10;;;;;;;28.85;35.54;100340.83;1751320;81;21017;-85
2021/08/01 11:06:00;;;;;;;3.92;1.22;;;;;;;28.95;35.28;100338.45;1755947;81;21025;-85
2021/08/01 11:08:27;;;;;;;1.55;1.30;;;;;;;28.96;35.04;100335.25;1756595;81;20994;-85
2021/08/01 11:11:16;;;;;;;2.15;1.25;;;;;;;28.94;35.04;100335.34;1756394;81;21749;-85
2021/08/01 11:13:47;;;;;;;2.60;1.45;;;;;;;28.90;34.97;100336.48;1755603;81;21080;-85
2021/08/01 11:16:17;;;;;;;1.57;1.10;;;;;;;28.80;34.89;100337.50;1756333;81;21057;-83
2021/08/01 11:18:45;;;;;;;1.55;1.25;;;;;;;28.81;35.00;100339.27;1745583;81;21127;-85
2021/08/01 11:21:13;;;;;;;2.47;1.10;;;;;;;28.87;34.83;100340.25;1756318;81;21029;-85
2021/08/01 11:23:51;;;;;;;4.00;1.60;;;;;;;28.87;34.85;100348.38;1756292;81;21758;-85
2021/08/01 11:26:18;;;;;;;1.90;1.57;;;;;;;28.86;34.68;100344.41;1756310;81;21496;-85
2021/08/01 11:28:48;;;;;;;1.50;1.05;;;;;;;28.62;34.73;100334.48;1756332;81;21002;-86
2021/08/01 11:31:19;;;;;;;2.58;1.40;;;;;;;28.50;34.84;100345.52;1756216;81;21305;-85